Flugplatz Schweighofen

Für EDRO sind keine METAR/TAF Berichte vorhanden.
Es werden die Flugwettermeldungen vom Flugplatz Karlsruhe Baden-Baden in 28 km Entfernung angezeigt.

Bericht für EDSB

vom 02.07. um 15:50 UTC

Wind 8 kt aus 270°

Sichtweite 10 km oder mehr

gute Sicht, keine Wolken < 5000 ft, keine CB, keine Wettererscheinungen (CAVOK)

Temperatur 25.0°C

Taupunkt 11.0°C

Luftfeuchtigkeit 41%

Luftdruck 1013 hPa

EDSB 021550Z 27008KT 220V320 CAVOK 25/11 Q1013

Prognose für EDSB

vom 02.07. um 11:00 UTC

Zwischen 12:00 UTC und 19:00 UTC

Wind 9 kt aus 230°

Sichtweite 10 km oder mehr

aufgelockert bewölkt in 3000 ft


Zwischen 19:00 und 21:00 UTC übergehend zu

Wind 4 kt aus 220°

Sichtweite 10 km oder mehr

aufgelockert bewölkt in 3000 ft


Am 03.07. zwischen 10:00 und 12:00 UTC übergehend zu

Wind 6 kt aus 280°

Sichtweite 10 km oder mehr

aufgelockert bewölkt in 3000 ft

TAF EDSB 021100Z 0212/0312 23009KT 9999 SCT030 BECMG 0219/0221 22004KT BECMG 0310/0312 28006KT
Impressum